createdAt,value
2018-05-25T00:01:21.676Z,18.01
2018-05-25T00:03:50.092Z,18.03
2018-05-25T00:06:18.554Z,18.03
2018-05-25T00:08:46.972Z,18.03
2018-05-25T00:11:15.412Z,18.00
2018-05-25T00:13:43.869Z,18.00
2018-05-25T00:16:12.287Z,17.99
2018-05-25T00:18:40.694Z,17.94
2018-05-25T00:21:09.170Z,17.90
2018-05-25T00:23:37.588Z,17.83
2018-05-25T00:26:06.044Z,17.82
2018-05-25T00:28:34.496Z,17.77
2018-05-25T00:31:02.926Z,17.71
2018-05-25T00:33:31.341Z,17.61
2018-05-25T00:35:59.834Z,17.63
2018-05-25T00:38:28.245Z,17.57
2018-05-25T00:40:56.666Z,17.52
2018-05-25T00:43:25.130Z,17.45
2018-05-25T00:45:53.543Z,17.43
2018-05-25T00:48:21.974Z,17.45
2018-05-25T00:50:50.446Z,17.43
2018-05-25T00:53:18.870Z,17.49
2018-05-25T00:55:47.294Z,17.49
2018-05-25T00:58:15.748Z,17.54
2018-05-25T01:00:44.164Z,17.57
2018-05-25T01:03:12.588Z,17.54
2018-05-25T01:05:41.287Z,17.55
2018-05-25T01:08:09.697Z,17.45
2018-05-25T01:10:38.116Z,17.39
2018-05-25T01:13:06.569Z,17.42
2018-05-25T01:15:34.995Z,17.36
2018-05-25T01:18:03.408Z,17.31
2018-05-25T01:20:31.864Z,17.31
2018-05-25T01:23:00.272Z,17.24
2018-05-25T01:25:28.705Z,17.18
2018-05-25T01:27:57.183Z,17.09
2018-05-25T01:30:25.622Z,17.02
2018-05-25T01:32:54.046Z,17.02
2018-05-25T01:35:22.522Z,17.02
2018-05-25T01:37:50.944Z,16.96
2018-05-25T01:40:19.364Z,16.95
2018-05-25T01:42:47.836Z,16.90
2018-05-25T01:45:16.262Z,16.89
2018-05-25T01:47:44.679Z,16.92
2018-05-25T01:50:13.297Z,16.96
2018-05-25T01:52:41.735Z,16.93
2018-05-25T01:55:10.160Z,16.90
2018-05-25T01:57:38.625Z,16.87
2018-05-25T02:00:07.086Z,16.89
2018-05-25T02:02:35.504Z,16.89
2018-05-25T02:05:04.174Z,16.92
2018-05-25T02:07:32.604Z,16.88
2018-05-25T02:10:01.032Z,16.85
2018-05-25T02:12:29.488Z,16.78
2018-05-25T02:14:57.904Z,16.74
2018-05-25T02:17:26.328Z,16.71
2018-05-25T02:19:54.784Z,16.70
2018-05-25T02:22:23.206Z,16.68
2018-05-25T02:24:51.630Z,16.69
2018-05-25T02:27:20.085Z,16.67
2018-05-25T02:29:48.501Z,16.71
2018-05-25T02:32:16.920Z,16.73
2018-05-25T02:34:45.380Z,16.75
2018-05-25T02:37:13.809Z,16.78
2018-05-25T02:39:42.240Z,16.75
2018-05-25T02:42:10.705Z,16.73
2018-05-25T02:44:39.129Z,16.80
2018-05-25T02:47:07.549Z,16.80
2018-05-25T02:49:36.029Z,16.76
2018-05-25T02:52:04.485Z,16.74
2018-05-25T02:54:32.908Z,16.73
2018-05-25T02:57:01.384Z,16.66
2018-05-25T02:59:29.810Z,16.67
2018-05-25T03:01:58.268Z,16.72
2018-05-25T03:04:26.731Z,16.75
2018-05-25T03:06:55.159Z,16.74
2018-05-25T03:09:23.585Z,16.72
2018-05-25T03:11:52.053Z,16.71
2018-05-25T03:14:20.472Z,16.68
2018-05-25T03:16:48.892Z,16.64
2018-05-25T03:19:17.371Z,16.50
2018-05-25T03:21:45.809Z,16.41
2018-05-25T03:24:14.236Z,16.30
2018-05-25T03:26:42.700Z,16.41
2018-05-25T03:29:11.141Z,16.53
2018-05-25T03:31:39.566Z,16.57
2018-05-25T03:34:08.032Z,16.57
2018-05-25T03:36:36.460Z,16.56
2018-05-25T03:39:05.801Z,16.56
2018-05-25T03:41:34.259Z,16.46
2018-05-25T03:44:02.695Z,16.52
2018-05-25T03:46:31.120Z,16.51
2018-05-25T03:48:59.599Z,16.51
2018-05-25T03:51:28.028Z,16.55
2018-05-25T03:53:56.456Z,16.56
2018-05-25T03:56:24.913Z,16.66
2018-05-25T03:59:05.053Z,16.53
2018-05-25T04:01:45.265Z,16.42
2018-05-25T04:04:13.688Z,16.37
2018-05-25T04:06:42.102Z,16.44
2018-05-25T04:09:10.558Z,16.53
2018-05-25T04:11:38.988Z,16.74
2018-05-25T04:14:07.397Z,16.87
2018-05-25T04:16:35.870Z,16.93
2018-05-25T04:19:04.292Z,16.97
2018-05-25T04:21:32.703Z,17.02
2018-05-25T04:24:01.169Z,17.05
2018-05-25T04:26:29.585Z,17.08
2018-05-25T04:28:58.008Z,17.08
2018-05-25T04:31:26.462Z,17.06
2018-05-25T04:33:54.884Z,17.07
2018-05-25T04:36:23.305Z,17.04
2018-05-25T04:38:51.762Z,17.04
2018-05-25T04:41:20.181Z,17.03
2018-05-25T04:43:48.607Z,17.01
2018-05-25T04:46:17.076Z,17.05
2018-05-25T04:48:45.509Z,17.07
2018-05-25T04:51:13.928Z,17.07
2018-05-25T04:53:42.602Z,17.05
2018-05-25T04:56:11.011Z,17.05
2018-05-25T04:58:39.424Z,17.02
2018-05-25T05:01:07.899Z,17.06
2018-05-25T05:03:36.312Z,17.09
2018-05-25T05:06:04.776Z,17.10
2018-05-25T05:08:33.234Z,17.16
2018-05-25T05:11:01.664Z,17.20
2018-05-25T05:13:30.091Z,17.23
2018-05-25T05:15:58.541Z,17.28
2018-05-25T05:18:26.960Z,17.32
2018-05-25T05:20:55.380Z,17.41
2018-05-25T05:23:23.841Z,17.51
2018-05-25T05:25:52.494Z,17.54
2018-05-25T05:28:21.851Z,17.62
2018-05-25T05:30:50.312Z,17.69
2018-05-25T05:33:18.729Z,17.76
2018-05-25T05:35:47.141Z,17.85
2018-05-25T05:38:15.620Z,17.93
2018-05-25T05:40:44.033Z,18.03
2018-05-25T05:43:12.444Z,18.10
2018-05-25T05:45:40.892Z,18.19
2018-05-25T05:48:09.314Z,18.27
2018-05-25T05:50:37.737Z,18.37
2018-05-25T05:53:06.186Z,18.55
2018-05-25T05:55:34.600Z,18.67
2018-05-25T05:58:03.028Z,18.71
2018-05-25T06:00:31.508Z,18.70
2018-05-25T06:02:59.964Z,18.70
2018-05-25T06:05:28.693Z,18.69
2018-05-25T06:07:57.164Z,18.73
2018-05-25T06:10:25.597Z,18.78
2018-05-25T06:12:54.054Z,18.77
2018-05-25T06:15:22.541Z,18.86
2018-05-25T06:17:50.972Z,18.91
2018-05-25T06:20:19.400Z,18.96
2018-05-25T06:22:47.865Z,19.07
2018-05-25T06:25:16.303Z,19.09
2018-05-25T06:27:44.737Z,19.12
2018-05-25T06:30:13.217Z,19.20
2018-05-25T06:32:41.649Z,19.18
2018-05-25T06:35:10.453Z,19.29
2018-05-25T06:37:38.908Z,19.27
2018-05-25T06:40:07.341Z,19.34
2018-05-25T06:42:35.779Z,19.40
2018-05-25T06:45:04.289Z,19.46
2018-05-25T06:47:32.729Z,19.51
2018-05-25T06:50:01.192Z,19.55
2018-05-25T06:52:29.666Z,19.61
2018-05-25T06:54:58.099Z,19.62
2018-05-25T06:57:26.533Z,19.62
2018-05-25T06:59:54.995Z,19.71
2018-05-25T07:02:23.444Z,19.83
2018-05-25T07:04:51.860Z,19.92
2018-05-25T07:07:20.345Z,19.98
2018-05-25T07:09:48.779Z,20.03
2018-05-25T07:12:17.204Z,20.15
2018-05-25T07:14:45.660Z,20.06
2018-05-25T07:17:14.088Z,20.03
2018-05-25T07:19:42.509Z,20.14
2018-05-25T07:22:10.985Z,20.22
2018-05-25T07:24:39.423Z,20.26
2018-05-25T07:27:07.852Z,20.32
2018-05-25T07:29:36.305Z,20.32
2018-05-25T07:32:04.741Z,20.38
2018-05-25T07:34:33.163Z,20.41
2018-05-25T07:37:01.637Z,20.50
2018-05-25T07:39:30.082Z,20.57
2018-05-25T07:41:58.511Z,20.70
2018-05-25T07:44:26.984Z,20.67
2018-05-25T07:46:55.400Z,20.74
2018-05-25T07:49:23.824Z,20.89
2018-05-25T07:51:52.295Z,20.93
2018-05-25T07:54:20.758Z,21.11
2018-05-25T07:56:49.186Z,21.15
2018-05-25T07:59:17.665Z,21.30
2018-05-25T08:01:46.093Z,21.43
2018-05-25T08:04:14.520Z,21.63
2018-05-25T08:06:42.988Z,21.75
2018-05-25T08:09:11.415Z,21.92
2018-05-25T08:11:39.838Z,21.92
2018-05-25T08:14:08.300Z,21.94
2018-05-25T08:16:36.725Z,22.11
2018-05-25T08:19:05.153Z,22.16
2018-05-25T08:21:33.651Z,22.11
2018-05-25T08:24:02.081Z,22.11
2018-05-25T08:26:30.500Z,22.16
2018-05-25T08:28:58.957Z,22.35
2018-05-25T08:31:27.384Z,22.43
2018-05-25T08:33:55.808Z,22.46
2018-05-25T08:36:24.281Z,22.56
2018-05-25T08:38:52.705Z,22.61
2018-05-25T08:41:21.157Z,22.60
2018-05-25T08:43:49.640Z,22.81
2018-05-25T08:46:18.063Z,22.93
2018-05-25T08:48:46.506Z,22.95
2018-05-25T08:51:14.968Z,22.93
2018-05-25T08:53:43.391Z,22.86
2018-05-25T08:56:12.561Z,23.02
2018-05-25T08:58:41.065Z,23.15
2018-05-25T09:01:09.488Z,23.23
2018-05-25T09:03:37.910Z,23.25
2018-05-25T09:06:06.381Z,23.25
2018-05-25T09:08:34.815Z,23.42
2018-05-25T09:11:03.268Z,23.55
2018-05-25T09:13:31.749Z,23.71
2018-05-25T09:16:00.179Z,23.65
2018-05-25T09:18:28.593Z,23.69
2018-05-25T09:20:57.069Z,23.57
2018-05-25T09:23:25.501Z,23.33
2018-05-25T09:25:53.925Z,23.34
2018-05-25T09:28:22.545Z,23.37
2018-05-25T09:30:51.025Z,23.51
2018-05-25T09:33:19.452Z,23.45
2018-05-25T09:35:47.928Z,23.64
2018-05-25T09:38:16.344Z,23.72
2018-05-25T09:40:44.772Z,23.70
2018-05-25T09:43:13.286Z,23.65
2018-05-25T09:45:41.710Z,23.70
2018-05-25T09:48:10.133Z,23.83
2018-05-25T09:50:38.590Z,23.82
2018-05-25T09:53:07.016Z,23.97
2018-05-25T09:55:35.462Z,24.07
2018-05-25T09:58:03.927Z,24.36
2018-05-25T10:00:32.352Z,24.51
2018-05-25T10:03:00.798Z,24.65
2018-05-25T10:05:29.325Z,24.75
2018-05-25T10:07:57.753Z,24.74
2018-05-25T10:10:26.211Z,24.66
2018-05-25T10:12:54.688Z,24.68
2018-05-25T10:15:23.104Z,24.82
2018-05-25T10:17:51.544Z,24.93
2018-05-25T10:20:20.024Z,25.09
2018-05-25T10:22:48.445Z,25.26
2018-05-25T10:25:16.867Z,25.36
2018-05-25T10:27:45.337Z,25.40
2018-05-25T10:30:13.761Z,25.48
2018-05-25T10:32:42.186Z,25.53
2018-05-25T10:35:10.713Z,25.20
2018-05-25T10:37:39.096Z,25.09
2018-05-25T10:40:07.549Z,25.11
2018-05-25T10:42:36.010Z,25.19
2018-05-25T10:45:04.444Z,25.15
2018-05-25T10:47:32.868Z,25.33
2018-05-25T10:50:01.337Z,25.43
2018-05-25T10:52:29.794Z,25.55
2018-05-25T10:54:58.232Z,25.50
2018-05-25T10:57:26.684Z,25.16
2018-05-25T10:59:55.120Z,25.16
2018-05-25T11:02:23.540Z,25.38
2018-05-25T11:04:52.007Z,25.39
2018-05-25T11:07:20.432Z,25.43
2018-05-25T11:09:48.859Z,25.32
2018-05-25T11:12:17.327Z,25.31
2018-05-25T11:14:45.744Z,25.22
2018-05-25T11:17:14.168Z,25.25
2018-05-25T11:19:42.631Z,25.22
2018-05-25T11:22:11.054Z,25.28
2018-05-25T11:24:39.481Z,25.33
2018-05-25T11:27:07.962Z,25.39
2018-05-25T11:29:36.396Z,25.38
2018-05-25T11:32:04.823Z,25.35
2018-05-25T11:34:33.287Z,25.49
2018-05-25T11:37:01.719Z,25.49
2018-05-25T11:39:30.150Z,25.42
2018-05-25T11:41:58.634Z,25.47
2018-05-25T11:44:27.049Z,25.50
2018-05-25T11:46:55.472Z,25.25
2018-05-25T11:49:24.300Z,25.24
2018-05-25T11:51:52.741Z,25.46
2018-05-25T11:54:21.169Z,25.70
2018-05-25T11:56:49.636Z,26.11
2018-05-25T11:59:18.053Z,26.36
2018-05-25T12:01:46.487Z,26.29
2018-05-25T12:04:14.949Z,25.96
2018-05-25T12:06:43.369Z,25.86
2018-05-25T12:09:11.788Z,25.86
2018-05-25T12:11:40.249Z,26.14
2018-05-25T12:14:08.686Z,26.48
2018-05-25T12:16:37.127Z,26.57
2018-05-25T12:19:05.585Z,26.79
2018-05-25T12:21:34.005Z,26.87
2018-05-25T12:24:02.429Z,26.96
2018-05-25T12:26:30.913Z,26.98
2018-05-25T12:28:59.350Z,27.04
2018-05-25T12:31:27.780Z,26.96
2018-05-25T12:33:56.236Z,26.85
2018-05-25T12:36:24.652Z,26.79
2018-05-25T12:38:53.061Z,26.86
2018-05-25T12:41:22.212Z,27.09
2018-05-25T12:43:50.637Z,27.31
2018-05-25T12:46:19.060Z,27.82
2018-05-25T12:48:47.532Z,28.12
2018-05-25T12:51:15.966Z,28.11
2018-05-25T12:53:44.383Z,28.01
2018-05-25T12:56:12.839Z,27.80
2018-05-25T12:58:41.250Z,27.54
2018-05-25T13:01:09.680Z,27.18
2018-05-25T13:03:38.137Z,26.91
2018-05-25T13:06:06.552Z,26.72
2018-05-25T13:08:34.972Z,26.60
2018-05-25T13:11:03.439Z,26.49
2018-05-25T13:13:31.880Z,26.38
2018-05-25T13:16:00.296Z,26.30
2018-05-25T13:18:28.760Z,26.32
2018-05-25T13:20:57.176Z,26.18
2018-05-25T13:23:25.597Z,26.34
2018-05-25T13:25:54.053Z,26.48
2018-05-25T13:28:22.499Z,26.58
2018-05-25T13:30:50.931Z,26.50
2018-05-25T13:33:19.389Z,26.52
2018-05-25T13:35:47.859Z,26.47
2018-05-25T13:38:16.285Z,26.39
2018-05-25T13:40:44.762Z,26.44
2018-05-25T13:43:13.173Z,26.50
2018-05-25T13:45:41.590Z,26.66
2018-05-25T13:48:10.059Z,26.62
2018-05-25T13:50:38.504Z,26.60
2018-05-25T13:53:06.940Z,26.61
2018-05-25T13:55:35.413Z,26.60
2018-05-25T13:58:03.864Z,26.72
2018-05-25T14:00:32.284Z,26.67
2018-05-25T14:03:00.743Z,26.68
2018-05-25T14:05:29.168Z,26.92
2018-05-25T14:07:57.581Z,27.03
2018-05-25T14:10:26.048Z,27.00
2018-05-25T14:12:54.476Z,27.04
2018-05-25T14:15:22.917Z,26.97
2018-05-25T14:17:51.381Z,26.92
2018-05-25T14:20:19.797Z,26.95
2018-05-25T14:22:48.236Z,27.10
2018-05-25T14:25:16.693Z,27.39
2018-05-25T14:27:45.109Z,27.59
2018-05-25T14:30:13.525Z,27.48
2018-05-25T14:32:41.990Z,27.39
2018-05-25T14:35:10.412Z,27.17
2018-05-25T14:37:38.825Z,27.18
2018-05-25T14:40:07.293Z,27.14
2018-05-25T14:42:35.716Z,27.02
2018-05-25T14:45:04.164Z,26.95
2018-05-25T14:47:32.637Z,26.86
2018-05-25T14:50:01.058Z,26.85
2018-05-25T14:52:29.472Z,26.75
2018-05-25T14:54:57.929Z,26.74
2018-05-25T14:57:26.349Z,26.66
2018-05-25T14:59:54.775Z,26.57
2018-05-25T15:02:23.228Z,26.57
2018-05-25T15:04:51.639Z,26.50
2018-05-25T15:07:20.060Z,26.54
2018-05-25T15:09:48.534Z,26.57
2018-05-25T15:12:16.957Z,26.59
2018-05-25T15:14:45.368Z,26.65
2018-05-25T15:17:13.824Z,26.68
2018-05-25T15:19:42.255Z,26.70
2018-05-25T15:22:10.678Z,26.65
2018-05-25T15:24:39.140Z,26.60
2018-05-25T15:27:07.556Z,26.54
2018-05-25T15:29:36.073Z,26.61
2018-05-25T15:32:04.517Z,26.55
2018-05-25T15:34:32.936Z,26.55
2018-05-25T15:37:01.364Z,26.49
2018-05-25T15:39:29.824Z,26.45
2018-05-25T15:41:58.246Z,26.39
2018-05-25T15:44:26.664Z,26.38
2018-05-25T15:46:55.125Z,26.34
2018-05-25T15:49:23.554Z,26.35
2018-05-25T15:51:52.005Z,26.39
2018-05-25T15:54:20.484Z,26.44
2018-05-25T15:56:48.910Z,26.43
2018-05-25T15:59:17.337Z,26.51
2018-05-25T16:01:45.807Z,26.51
2018-05-25T16:04:14.225Z,26.53
2018-05-25T16:06:42.654Z,26.60
2018-05-25T16:09:11.120Z,26.65
2018-05-25T16:11:39.532Z,26.66
2018-05-25T16:14:07.965Z,26.67
2018-05-25T16:16:36.420Z,26.65
2018-05-25T16:19:04.856Z,26.68
2018-05-25T16:21:33.266Z,26.67
2018-05-25T16:24:01.731Z,26.62
2018-05-25T16:26:30.147Z,26.56
2018-05-25T16:28:58.608Z,26.51
2018-05-25T16:31:27.041Z,26.48
2018-05-25T16:33:55.449Z,26.41
2018-05-25T16:36:23.888Z,26.27
2018-05-25T16:38:52.348Z,26.21
2018-05-25T16:41:20.768Z,26.15
2018-05-25T16:43:49.184Z,26.09
2018-05-25T16:46:17.644Z,26.03
2018-05-25T16:48:46.075Z,25.91
2018-05-25T16:51:14.489Z,25.88
2018-05-25T16:53:42.950Z,25.90
2018-05-25T16:56:11.401Z,25.89
2018-05-25T16:58:39.828Z,25.88
2018-05-25T17:01:08.301Z,25.83
2018-05-25T17:03:36.721Z,25.80
2018-05-25T17:06:05.168Z,25.86
2018-05-25T17:08:33.628Z,25.79
2018-05-25T17:11:02.053Z,25.72
2018-05-25T17:13:30.492Z,25.75
2018-05-25T17:15:58.960Z,25.72
2018-05-25T17:18:27.394Z,25.67
2018-05-25T17:20:55.825Z,25.65
2018-05-25T17:23:24.301Z,25.64
2018-05-25T17:25:52.735Z,25.64
2018-05-25T17:28:21.161Z,25.64
2018-05-25T17:30:49.693Z,25.68
2018-05-25T17:33:18.093Z,25.47
2018-05-25T17:35:46.528Z,25.42
2018-05-25T17:38:14.988Z,25.33
2018-05-25T17:40:43.417Z,25.27
2018-05-25T17:43:11.844Z,25.26
2018-05-25T17:45:40.332Z,25.30
2018-05-25T17:48:08.780Z,25.21
2018-05-25T17:50:37.213Z,25.20
2018-05-25T17:53:05.679Z,25.06
2018-05-25T17:55:34.112Z,25.03
2018-05-25T17:58:02.545Z,24.97
2018-05-25T18:00:31.037Z,24.84
2018-05-25T18:02:59.474Z,24.81
2018-05-25T18:05:27.895Z,24.82
2018-05-25T18:07:56.373Z,24.73
2018-05-25T18:10:24.817Z,24.72
2018-05-25T18:12:53.240Z,24.66
2018-05-25T18:15:21.730Z,24.65
2018-05-25T18:17:50.235Z,24.63
2018-05-25T18:20:18.644Z,24.56
2018-05-25T18:22:47.109Z,24.51
2018-05-25T18:25:15.525Z,24.46
2018-05-25T18:27:43.949Z,24.35
2018-05-25T18:30:12.405Z,24.23
2018-05-25T18:32:40.823Z,24.08
2018-05-25T18:35:09.249Z,24.06
2018-05-25T18:37:37.722Z,23.95
2018-05-25T18:40:06.138Z,23.78
2018-05-25T18:42:34.579Z,23.70
2018-05-25T18:45:03.058Z,23.68
2018-05-25T18:47:31.498Z,23.56
2018-05-25T18:49:59.915Z,23.53
2018-05-25T18:52:28.392Z,23.41
2018-05-25T18:54:56.810Z,23.31
2018-05-25T18:57:25.234Z,23.23
2018-05-25T18:59:53.703Z,23.08
2018-05-25T19:02:22.147Z,23.14
2018-05-25T19:04:50.635Z,23.05
2018-05-25T19:07:19.140Z,22.70
2018-05-25T19:09:47.566Z,22.83
2018-05-25T19:12:16.008Z,22.75
2018-05-25T19:14:44.486Z,22.68
2018-05-25T19:17:12.923Z,22.59
2018-05-25T19:19:41.354Z,22.59
2018-05-25T19:22:09.824Z,22.58
2018-05-25T19:24:38.252Z,22.54
2018-05-25T19:27:06.680Z,22.49
2018-05-25T19:29:35.245Z,22.43
2018-05-25T19:32:03.693Z,22.33
2018-05-25T19:34:32.120Z,22.23
2018-05-25T19:37:00.582Z,21.96
2018-05-25T19:39:29.021Z,21.86
2018-05-25T19:41:57.450Z,21.71
2018-05-25T19:44:25.921Z,21.61
2018-05-25T19:46:54.367Z,21.66
2018-05-25T19:49:22.791Z,21.63
2018-05-25T19:51:51.365Z,21.61
2018-05-25T19:54:19.798Z,21.48
2018-05-25T19:56:48.233Z,21.38
2018-05-25T19:59:16.698Z,21.28
2018-05-25T20:01:45.129Z,21.35
2018-05-25T20:04:13.554Z,21.42
2018-05-25T20:06:42.451Z,21.34
2018-05-25T20:09:10.968Z,21.35
2018-05-25T20:11:39.406Z,21.32
2018-05-25T20:14:07.893Z,21.36
2018-05-25T20:16:36.312Z,21.39
2018-05-25T20:19:04.756Z,21.46
2018-05-25T20:21:33.216Z,21.59
2018-05-25T20:24:01.633Z,21.69
2018-05-25T20:26:30.054Z,21.71
2018-05-25T20:28:58.561Z,21.72
2018-05-25T20:31:26.989Z,21.74
2018-05-25T20:33:55.425Z,21.69
2018-05-25T20:36:23.893Z,21.67
2018-05-25T20:38:52.321Z,21.60
2018-05-25T20:41:20.777Z,21.56
2018-05-25T20:43:49.248Z,21.53
2018-05-25T20:46:17.679Z,21.48
2018-05-25T20:48:46.117Z,21.41
2018-05-25T20:51:14.584Z,21.36
2018-05-25T20:53:43.017Z,21.28
2018-05-25T20:56:11.828Z,21.22
2018-05-25T20:58:40.313Z,21.18
2018-05-25T21:01:08.745Z,21.14
2018-05-25T21:03:37.178Z,21.06
2018-05-25T21:06:05.663Z,21.01
2018-05-25T21:08:34.079Z,21.02
2018-05-25T21:11:02.501Z,20.96
2018-05-25T21:13:30.976Z,20.95
2018-05-25T21:15:59.396Z,20.94
2018-05-25T21:18:27.811Z,20.90
2018-05-25T21:20:56.282Z,20.86
2018-05-25T21:23:24.703Z,20.80
2018-05-25T21:25:53.133Z,20.70
2018-05-25T21:30:53.741Z,20.59
2018-05-25T21:33:22.153Z,20.53
2018-05-25T21:35:50.577Z,20.45
2018-05-25T21:38:19.061Z,20.43
2018-05-25T21:40:47.482Z,20.39
2018-05-25T21:43:15.901Z,20.35
2018-05-25T21:45:44.361Z,20.33
2018-05-25T21:48:12.787Z,20.28
2018-05-25T21:50:41.221Z,20.26
2018-05-25T21:53:09.686Z,20.23
2018-05-25T21:55:38.108Z,20.23
2018-05-25T21:58:06.535Z,20.16
2018-05-25T22:00:35.044Z,20.15
2018-05-25T22:03:03.489Z,20.05
2018-05-25T22:05:31.904Z,20.07
2018-05-25T22:08:00.369Z,19.99
2018-05-25T22:10:28.809Z,19.90
2018-05-25T22:12:57.241Z,19.82
2018-05-25T22:15:25.733Z,19.71
2018-05-25T22:17:54.154Z,19.69
2018-05-25T22:20:22.573Z,19.69
2018-05-25T22:22:51.036Z,19.61
2018-05-25T22:25:19.463Z,19.60
2018-05-25T22:27:47.888Z,19.56
2018-05-25T22:30:16.367Z,19.57
2018-05-25T22:32:44.789Z,19.52
2018-05-25T22:35:13.217Z,19.52
2018-05-25T22:37:41.666Z,19.50
2018-05-25T22:40:10.087Z,19.44
2018-05-25T22:42:50.290Z,19.38
2018-05-25T22:45:30.405Z,19.41
2018-05-25T22:48:10.648Z,19.40
2018-05-25T22:50:50.921Z,19.41
2018-05-25T22:53:24.457Z,19.39
2018-05-25T22:55:52.871Z,19.37
2018-05-25T22:58:21.281Z,19.41
2018-05-25T23:00:49.761Z,19.39
2018-05-25T23:03:18.177Z,19.36
2018-05-25T23:05:46.600Z,19.27
2018-05-25T23:08:15.093Z,19.10
2018-05-25T23:10:43.521Z,18.99
2018-05-25T23:13:11.937Z,18.96
2018-05-25T23:15:40.418Z,18.87
2018-05-25T23:18:08.837Z,18.64
2018-05-25T23:20:37.265Z,18.46
2018-05-25T23:23:05.729Z,18.39
2018-05-25T23:25:34.151Z,18.48
2018-05-25T23:28:02.592Z,18.50
2018-05-25T23:30:31.057Z,18.50
2018-05-25T23:32:59.478Z,18.50
2018-05-25T23:35:27.901Z,18.50
2018-05-25T23:37:56.361Z,18.44
2018-05-25T23:40:24.797Z,18.36
2018-05-25T23:42:53.216Z,18.38
2018-05-25T23:45:21.696Z,18.34
2018-05-25T23:47:50.130Z,18.31
2018-05-25T23:50:18.554Z,18.31
2018-05-25T23:52:47.019Z,18.11
2018-05-25T23:55:15.438Z,17.90
2018-05-25T23:57:43.859Z,17.99
